Time;durP1;ratioP1;P1;durP2;ratioP2;P2;SDS_P1;SDS_P2;PMS_P1;PMS_P2;Temp;Humidity;BMP_temperature;BMP_pressure;BME280_temperature;BME280_humidity;BME280_pressure;Samples;Min_cycle;Max_cycle;Signal;HPM_P1;HPM_P2
2023/12/16 00:01:34;;;;;;;3.67;1.63;;;8.40;99.90;;;;;;5077919;28;21002;-83
2023/12/16 00:03:59;;;;;;;0.20;0.20;;;8.40;99.90;;;;;;5049257;28;20209;-84
2023/12/16 00:06:25;;;;;;;0.20;0.20;;;8.30;99.90;;;;;;5057040;28;20270;-83
2023/12/16 00:08:51;;;;;;;0.50;0.50;;;8.40;99.90;;;;;;5067255;28;20721;-82
2023/12/16 00:11:17;;;;;;;0.33;0.33;;;8.30;99.90;;;;;;5049799;28;20255;-83
2023/12/16 00:13:42;;;;;;;0.80;0.80;;;8.30;99.90;;;;;;5066965;28;20193;-82
2023/12/16 00:16:08;;;;;;;0.97;0.97;;;8.30;99.90;;;;;;5066746;28;20188;-83
2023/12/16 00:18:36;;;;;;;1.60;1.27;;;8.30;99.90;;;;;;5046278;28;20260;-84
2023/12/16 00:21:02;;;;;;;0.80;0.80;;;8.30;99.90;;;;;;5053884;28;20233;-84
2023/12/16 00:23:27;;;;;;;0.97;0.40;;;8.30;99.90;;;;;;5049126;28;20228;-83
2023/12/16 00:25:53;;;;;;;6.33;1.17;;;8.30;99.90;;;;;;5049254;28;20296;-83
2023/12/16 00:28:19;;;;;;;2.33;0.67;;;8.20;99.90;;;;;;5066053;28;20251;-82
2023/12/16 00:30:45;;;;;;;2.63;0.73;;;8.20;99.90;;;;;;5065374;28;20241;-83
2023/12/16 00:33:11;;;;;;;4.37;1.73;;;8.20;99.90;;;;;;5067974;28;20711;-84
2023/12/16 00:35:37;;;;;;;1.33;1.10;;;8.20;99.90;;;;;;5066929;28;20220;-83
2023/12/16 00:38:02;;;;;;;0.93;0.77;;;8.20;99.90;;;;;;5066737;28;20220;-84
2023/12/16 00:40:28;;;;;;;0.50;0.50;;;8.20;99.90;;;;;;5068165;28;20209;-83
2023/12/16 00:42:54;;;;;;;1.37;1.27;;;8.20;99.90;;;;;;5065967;28;20213;-83
2023/12/16 00:45:20;;;;;;;7.93;1.37;;;8.20;99.90;;;;;;5057445;28;20325;-82
2023/12/16 00:47:45;;;;;;;1.03;1.03;;;8.10;99.90;;;;;;5066198;28;20249;-84
2023/12/16 00:50:12;;;;;;;0.50;0.50;;;8.10;99.90;;;;;;5066565;28;20232;-84
2023/12/16 00:52:37;;;;;;;1.20;1.13;;;8.10;99.90;;;;;;5050612;28;20189;-82
2023/12/16 00:55:03;;;;;;;2.03;0.93;;;8.10;99.90;;;;;;5065375;28;20226;-83
2023/12/16 00:57:29;;;;;;;14.00;0.50;;;8.10;99.90;;;;;;5065580;28;20232;-83
2023/12/16 00:59:55;;;;;;;0.67;0.67;;;8.10;99.90;;;;;;5046076;28;20233;-83
2023/12/16 01:02:21;;;;;;;9.47;0.97;;;8.10;99.90;;;;;;5052108;28;20689;-94
2023/12/16 01:04:46;;;;;;;3.20;0.50;;;8.10;99.90;;;;;;5070881;28;20184;-94
2023/12/16 01:07:15;;;;;;;5.23;0.70;;;8.10;99.90;;;;;;5071848;28;20206;-95
2023/12/16 01:09:42;;;;;;;0.50;0.50;;;8.10;99.90;;;;;;5088135;28;20222;-95
2023/12/16 01:12:09;;;;;;;1.13;1.03;;;8.00;99.90;;;;;;5054457;28;20264;-96
2023/12/16 01:14:35;;;;;;;0.37;0.37;;;8.00;99.90;;;;;;5070395;28;20243;-95
2023/12/16 01:17:00;;;;;;;0.60;0.60;;;8.00;99.90;;;;;;5054331;28;20236;-95
2023/12/16 01:19:26;;;;;;;0.93;0.50;;;7.90;99.90;;;;;;5070968;28;20700;-92
2023/12/16 01:21:52;;;;;;;0.50;0.50;;;7.80;99.90;;;;;;5070716;28;20214;-94
2023/12/16 01:24:18;;;;;;;1.80;0.87;;;7.70;99.90;;;;;;5054246;28;20249;-91
2023/12/16 01:26:43;;;;;;;1.60;1.07;;;7.70;99.90;;;;;;5070880;28;20683;-95
2023/12/16 01:29:09;;;;;;;0.60;0.60;;;7.60;99.90;;;;;;5070801;28;20213;-92
2023/12/16 01:31:35;;;;;;;0.50;0.50;;;7.50;99.90;;;;;;5054818;28;20186;-94
2023/12/16 01:34:01;;;;;;;2.83;0.70;;;7.50;99.90;;;;;;5070701;28;20229;-95
2023/12/16 01:36:27;;;;;;;0.90;0.90;;;7.50;99.90;;;;;;5070601;28;20222;-94
2023/12/16 01:38:52;;;;;;;0.40;0.40;;;7.40;99.90;;;;;;5070463;28;20213;-94
2023/12/16 01:41:18;;;;;;;0.30;0.30;;;7.40;99.90;;;;;;5070319;28;20229;-92
2023/12/16 01:43:44;;;;;;;2.33;1.30;;;7.40;99.90;;;;;;5053491;28;20178;-95
2023/12/16 01:46:10;;;;;;;0.87;0.87;;;7.40;99.90;;;;;;5070765;28;20210;-93
2023/12/16 01:48:35;;;;;;;0.27;0.27;;;7.40;99.90;;;;;;5069678;28;20265;-94
2023/12/16 01:51:02;;;;;;;4.67;1.03;;;7.40;99.90;;;;;;5070322;28;20688;-94
2023/12/16 01:53:29;;;;;;;0.40;0.40;;;7.40;99.90;;;;;;5070132;28;20220;-92
2023/12/16 01:55:55;;;;;;;4.13;0.53;;;7.50;99.90;;;;;;5053689;28;20178;-91
2023/12/16 01:58:22;;;;;;;3.97;1.20;;;7.50;99.90;;;;;;5054163;28;20225;-92
2023/12/16 02:00:51;;;;;;;0.30;0.30;;;7.40;99.90;;;;;;5054677;28;20709;-95
2023/12/16 02:03:18;;;;;;;0.77;0.77;;;7.40;99.90;;;;;;5086938;28;20222;-93
2023/12/16 02:05:44;;;;;;;0.63;0.40;;;7.30;99.90;;;;;;5069916;28;20217;-95
2023/12/16 02:08:10;;;;;;;1.50;1.23;;;7.30;99.90;;;;;;5052998;28;20214;-94
2023/12/16 02:10:36;;;;;;;0.40;0.40;;;7.30;99.90;;;;;;5054227;28;20482;-92
2023/12/16 02:13:02;;;;;;;0.50;0.50;;;7.30;99.90;;;;;;5053817;28;20221;-96
2023/12/16 02:15:29;;;;;;;8.73;1.33;;;7.20;99.90;;;;;;5053722;28;20604;-95
2023/12/16 02:17:54;;;;;;;0.97;0.70;;;7.20;99.90;;;;;;5086588;28;20547;-94
2023/12/16 02:20:20;;;;;;;0.77;0.73;;;7.20;99.90;;;;;;5053045;28;20233;-96
2023/12/16 02:22:47;;;;;;;0.40;0.40;;;7.20;99.90;;;;;;5053461;28;20198;-95
2023/12/16 02:25:14;;;;;;;0.43;0.43;;;7.20;99.90;;;;;;5053715;28;20182;-95
2023/12/16 02:27:41;;;;;;;0.50;0.50;;;7.20;99.90;;;;;;5085868;28;20210;-94
2023/12/16 02:30:08;;;;;;;0.47;0.40;;;7.20;99.90;;;;;;5053085;28;20572;-92
2023/12/16 02:32:34;;;;;;;2.20;1.90;;;7.00;99.90;;;;;;5054012;28;20272;-94
2023/12/16 02:35:00;;;;;;;0.90;0.90;;;7.00;99.90;;;;;;5069459;28;20680;-93
2023/12/16 02:37:26;;;;;;;0.40;0.40;;;6.90;99.90;;;;;;5053233;28;20263;-92
2023/12/16 02:39:52;;;;;;;0.50;0.50;;;7.00;99.90;;;;;;5052539;28;20264;-94
2023/12/16 02:42:18;;;;;;;0.20;0.20;;;7.00;99.90;;;;;;5052724;28;20214;-93
2023/12/16 02:44:43;;;;;;;0.40;0.40;;;6.90;99.90;;;;;;5069097;28;20210;-93
2023/12/16 02:47:09;;;;;;;0.80;0.80;;;7.00;99.90;;;;;;5069045;28;20217;-94
2023/12/16 02:49:35;;;;;;;0.23;0.23;;;7.00;99.90;;;;;;5069627;28;20233;-94
2023/12/16 02:52:01;;;;;;;9.63;1.17;;;7.00;99.90;;;;;;5052704;28;20214;-93
2023/12/16 02:54:28;;;;;;;1.23;1.13;;;7.10;99.90;;;;;;5052504;28;20216;-93
2023/12/16 02:56:53;;;;;;;4.00;0.50;;;7.10;99.90;;;;;;5085739;28;20305;-94
2023/12/16 02:59:19;;;;;;;0.40;0.40;;;6.90;99.90;;;;;;5068979;28;20621;-93
2023/12/16 03:01:45;;;;;;;0.77;0.50;;;7.00;99.90;;;;;;5052798;28;20211;-93
2023/12/16 03:04:11;;;;;;;0.33;0.33;;;7.00;99.90;;;;;;5069587;28;20238;-95
2023/12/16 03:06:45;;;;;;;0.30;0.30;;;7.00;99.90;;;;;;5068816;28;20209;-94
2023/12/16 03:09:11;;;;;;;0.77;0.77;;;6.90;99.90;;;;;;5068910;28;20703;-94
2023/12/16 03:11:37;;;;;;;0.40;0.40;;;6.90;99.90;;;;;;5069000;28;20306;-94
2023/12/16 03:14:03;;;;;;;1.27;1.07;;;6.80;99.90;;;;;;5068814;28;20220;-94
2023/12/16 03:16:31;;;;;;;0.83;0.77;;;6.80;99.90;;;;;;5052945;28;20498;-93
2023/12/16 03:18:58;;;;;;;2.07;0.47;;;6.90;99.90;;;;;;5052958;28;20221;-93
2023/12/16 03:21:24;;;;;;;1.83;1.83;;;6.90;99.90;;;;;;5085760;28;20554;-93
2023/12/16 03:23:49;;;;;;;0.47;0.47;;;6.90;99.90;;;;;;5052421;28;20600;-92
2023/12/16 03:26:15;;;;;;;0.60;0.60;;;6.80;99.90;;;;;;5053210;28;20217;-93
2023/12/16 03:28:41;;;;;;;2.53;1.23;;;6.90;99.90;;;;;;5068653;28;20185;-94
2023/12/16 03:31:07;;;;;;;4.63;1.53;;;6.70;99.90;;;;;;5070311;28;20270;-94
2023/12/16 03:33:32;;;;;;;0.73;0.70;;;6.70;99.90;;;;;;5051633;28;20217;-93
2023/12/16 03:35:58;;;;;;;0.50;0.50;;;6.70;99.90;;;;;;5051779;28;20562;-94
2023/12/16 03:38:24;;;;;;;0.43;0.43;;;6.70;99.90;;;;;;5070710;28;20814;-94
2023/12/16 03:40:49;;;;;;;0.30;0.30;;;6.70;99.90;;;;;;5055853;28;20305;-94
2023/12/16 03:43:17;;;;;;;0.97;0.97;;;6.80;99.90;;;;;;5056449;28;20190;-94
2023/12/16 03:45:43;;;;;;;0.57;0.57;;;6.80;99.90;;;;;;5055590;28;20222;-93
2023/12/16 03:48:09;;;;;;;2.53;0.67;;;6.90;99.90;;;;;;5088972;28;20265;-93
2023/12/16 03:50:35;;;;;;;0.70;0.67;;;7.20;99.90;;;;;;5072608;28;20688;-94
2023/12/16 03:53:01;;;;;;;0.90;0.90;;;7.00;99.90;;;;;;5072436;28;20221;-93
2023/12/16 03:55:26;;;;;;;1.40;1.40;;;7.10;99.90;;;;;;5056402;28;20236;-93
2023/12/16 03:57:52;;;;;;;0.70;0.70;;;7.30;99.90;;;;;;5055404;28;20221;-92
2023/12/16 04:00:18;;;;;;;0.40;0.40;;;7.30;99.90;;;;;;5071969;28;20225;-92
2023/12/16 04:02:44;;;;;;;1.17;0.90;;;7.30;99.90;;;;;;5072031;28;20214;-93
2023/12/16 04:05:10;;;;;;;0.97;0.77;;;7.50;99.90;;;;;;5072580;28;20645;-94
2023/12/16 04:07:36;;;;;;;0.30;0.30;;;7.50;99.90;;;;;;5056028;28;20587;-91
2023/12/16 04:10:03;;;;;;;0.60;0.60;;;7.70;99.90;;;;;;5055987;28;20721;-94
2023/12/16 04:12:29;;;;;;;1.50;1.13;;;7.70;99.90;;;;;;5056644;28;20240;-92
2023/12/16 04:14:54;;;;;;;0.87;0.50;;;7.60;99.90;;;;;;5055431;28;20297;-93
2023/12/16 04:17:20;;;;;;;3.90;0.87;;;7.70;99.90;;;;;;5071996;28;20213;-93
2023/12/16 04:19:53;;;;;;;1.07;1.07;;;7.60;99.90;;;;;;5071755;28;20218;-93
2023/12/16 04:22:19;;;;;;;2.57;2.37;;;7.80;99.90;;;;;;5056620;28;20182;-94
2023/12/16 04:24:46;;;;;;;0.43;0.43;;;7.80;99.90;;;;;;5055120;28;20210;-93
2023/12/16 04:27:12;;;;;;;6.93;1.60;;;7.90;99.90;;;;;;5071444;28;20226;-94
2023/12/16 04:29:38;;;;;;;0.50;0.50;;;7.70;99.90;;;;;;5056251;28;20222;-93
2023/12/16 04:32:04;;;;;;;5.10;0.83;;;7.70;99.90;;;;;;5054978;28;20650;-92
2023/12/16 04:34:29;;;;;;;1.23;0.60;;;7.70;99.90;;;;;;5072851;28;20194;-92
2023/12/16 04:36:55;;;;;;;0.63;0.63;;;7.80;99.90;;;;;;5071976;28;20228;-92
2023/12/16 04:39:21;;;;;;;1.90;0.93;;;7.90;99.90;;;;;;5071468;28;20230;-94
2023/12/16 04:41:47;;;;;;;3.03;1.67;;;7.80;99.90;;;;;;5054931;28;20225;-92
2023/12/16 04:44:12;;;;;;;0.33;0.33;;;8.00;99.90;;;;;;5055675;28;20214;-93
2023/12/16 04:46:38;;;;;;;2.33;1.90;;;8.00;99.90;;;;;;5055480;28;20182;-93
2023/12/16 04:49:04;;;;;;;0.73;0.60;;;7.80;99.90;;;;;;5070214;28;20264;-94
2023/12/16 04:51:29;;;;;;;10.37;1.27;;;7.90;99.90;;;;;;5070964;28;20245;-93
2023/12/16 04:53:56;;;;;;;1.00;1.00;;;8.10;99.90;;;;;;5071210;28;20546;-93
2023/12/16 04:56:22;;;;;;;9.00;1.03;;;7.90;99.90;;;;;;5071292;28;20210;-94
2023/12/16 04:58:48;;;;;;;6.70;0.40;;;8.00;99.90;;;;;;5054417;28;20213;-92
2023/12/16 05:01:14;;;;;;;4.40;2.00;;;8.20;99.90;;;;;;5072024;28;20178;-90
2023/12/16 05:03:41;;;;;;;1.53;0.70;;;8.30;99.90;;;;;;5054456;28;20213;-92
2023/12/16 05:06:07;;;;;;;6.83;1.63;;;8.10;99.90;;;;;;5051259;28;20222;-92
2023/12/16 05:08:33;;;;;;;0.50;0.47;;;8.20;99.90;;;;;;5038154;28;20210;-92
2023/12/16 05:10:59;;;;;;;1.30;1.20;;;8.20;99.90;;;;;;5071253;28;20193;-94
2023/12/16 05:13:25;;;;;;;13.13;0.60;;;8.30;99.90;;;;;;5055209;28;20201;-91
2023/12/16 05:15:51;;;;;;;2.53;1.73;;;8.20;99.90;;;;;;5071510;28;20220;-94
2023/12/16 05:18:18;;;;;;;0.77;0.77;;;8.20;99.90;;;;;;5054418;28;20218;-92
2023/12/16 05:20:44;;;;;;;1.40;1.40;;;8.20;99.90;;;;;;5071061;28;20225;-91
2023/12/16 05:23:09;;;;;;;0.43;0.43;;;8.10;99.90;;;;;;5053937;28;20212;-94
2023/12/16 05:25:35;;;;;;;0.60;0.60;;;8.00;99.90;;;;;;5071276;28;20178;-93
2023/12/16 05:28:02;;;;;;;0.73;0.73;;;8.00;99.90;;;;;;5055076;28;20309;-92
2023/12/16 05:30:28;;;;;;;0.67;0.67;;;8.10;99.90;;;;;;5070904;28;20303;-91
2023/12/16 05:32:54;;;;;;;4.60;1.37;;;8.10;99.90;;;;;;5070414;28;20255;-92
2023/12/16 05:35:20;;;;;;;0.97;0.97;;;8.00;99.90;;;;;;5070638;28;20285;-92
2023/12/16 05:37:46;;;;;;;0.60;0.60;;;8.00;99.90;;;;;;5053602;28;20174;-94
2023/12/16 05:40:12;;;;;;;3.27;1.27;;;8.20;99.90;;;;;;5054779;28;20218;-93
2023/12/16 05:42:40;;;;;;;1.53;1.00;;;8.00;99.90;;;;;;5070000;28;20700;-95
2023/12/16 05:45:07;;;;;;;1.30;1.20;;;8.10;99.90;;;;;;5069837;28;20297;-93
2023/12/16 05:47:33;;;;;;;0.87;0.87;;;8.10;99.90;;;;;;5053777;28;20313;-95
2023/12/16 05:49:59;;;;;;;1.43;1.37;;;7.90;99.90;;;;;;5053986;28;20244;-94
2023/12/16 05:52:24;;;;;;;3.60;1.27;;;7.90;99.90;;;;;;5071343;28;20185;-93
2023/12/16 05:54:50;;;;;;;8.20;1.67;;;8.00;99.90;;;;;;5070171;28;20682;-92
2023/12/16 05:57:16;;;;;;;4.50;0.83;;;8.10;99.90;;;;;;5053448;28;20226;-92
2023/12/16 05:59:42;;;;;;;0.83;0.83;;;8.10;99.90;;;;;;5053654;28;20317;-93
2023/12/16 06:02:08;;;;;;;1.60;1.10;;;8.20;99.90;;;;;;5053482;28;20275;-94
2023/12/16 06:04:34;;;;;;;4.60;1.47;;;7.90;99.90;;;;;;5070414;28;20597;-92
2023/12/16 06:07:00;;;;;;;6.40;1.10;;;8.10;99.90;;;;;;5053339;28;20214;-93
2023/12/16 06:09:25;;;;;;;0.83;0.83;;;8.30;99.90;;;;;;5070074;28;20352;-96
2023/12/16 06:11:51;;;;;;;21.63;0.80;;;8.20;99.90;;;;;;5053332;28;20217;-92
2023/12/16 06:14:17;;;;;;;3.13;0.83;;;8.40;99.90;;;;;;5070054;28;20688;-93
2023/12/16 06:16:43;;;;;;;9.30;1.93;;;8.60;99.90;;;;;;5052876;28;20184;-94
2023/12/16 06:19:09;;;;;;;1.70;0.90;;;8.40;99.90;;;;;;5054287;28;20178;-93
2023/12/16 06:21:34;;;;;;;10.47;2.00;;;8.60;99.90;;;;;;5069491;28;20237;-93
2023/12/16 06:24:00;;;;;;;1.00;1.00;;;8.70;99.90;;;;;;5052722;28;20214;-91
2023/12/16 06:26:27;;;;;;;8.30;0.50;;;8.50;99.90;;;;;;5069495;28;20217;-91
2023/12/16 06:28:53;;;;;;;0.80;0.80;;;8.60;99.90;;;;;;5069485;28;20174;-93
2023/12/16 06:31:19;;;;;;;2.03;1.33;;;8.70;99.90;;;;;;5070049;28;20590;-92
2023/12/16 06:33:45;;;;;;;1.17;1.13;;;8.60;99.90;;;;;;5085950;28;20558;-95
2023/12/16 06:36:11;;;;;;;2.37;0.77;;;8.60;99.90;;;;;;5052923;28;20221;-92
2023/12/16 06:38:37;;;;;;;2.63;1.00;;;8.80;99.90;;;;;;5085757;28;20217;-95
2023/12/16 06:41:04;;;;;;;7.53;1.73;;;8.80;99.90;;;;;;5052685;28;20262;-94
2023/12/16 06:43:30;;;;;;;1.40;1.40;;;8.90;99.90;;;;;;5069918;28;20178;-93
2023/12/16 06:45:56;;;;;;;0.90;0.90;;;8.70;99.90;;;;;;5052916;28;20295;-93
2023/12/16 06:48:22;;;;;;;7.50;2.37;;;8.90;99.90;;;;;;5085939;28;20687;-94
2023/12/16 06:50:51;;;;;;;5.27;2.73;;;8.90;99.90;;;;;;5053223;28;20636;-93
2023/12/16 06:53:17;;;;;;;8.80;2.20;;;8.70;99.90;;;;;;5053264;28;20214;-91
2023/12/16 06:55:43;;;;;;;0.90;0.73;;;9.00;99.90;;;;;;5069128;28;20236;-94
2023/12/16 06:58:08;;;;;;;9.50;2.40;;;9.00;99.90;;;;;;5069452;28;20616;-93
2023/12/16 07:00:34;;;;;;;18.03;2.40;;;8.90;99.90;;;;;;5052284;28;20230;-92
2023/12/16 07:03:00;;;;;;;17.13;2.67;;;9.00;99.90;;;;;;5085220;28;20224;-93
2023/12/16 07:05:28;;;;;;;2.57;1.03;;;9.20;99.90;;;;;;5069413;28;20213;-93
2023/12/16 07:07:54;;;;;;;1.50;1.03;;;9.10;99.90;;;;;;5068847;28;20306;-93
2023/12/16 07:10:20;;;;;;;5.23;1.43;;;9.50;99.90;;;;;;5086881;28;20190;-93
2023/12/16 07:12:46;;;;;;;0.60;0.60;;;9.30;99.90;;;;;;5068655;28;20213;-92
2023/12/16 07:15:11;;;;;;;0.83;0.83;;;9.50;99.90;;;;;;5052257;28;20693;-92
2023/12/16 07:17:38;;;;;;;0.73;0.73;;;9.50;99.90;;;;;;5085755;28;20225;-92
2023/12/16 07:20:05;;;;;;;4.03;1.50;;;9.60;99.90;;;;;;5052708;28;20667;-92
2023/12/16 07:22:30;;;;;;;6.70;1.90;;;9.70;99.90;;;;;;5052430;28;20240;-93
2023/12/16 07:24:57;;;;;;;12.00;1.13;;;9.50;99.90;;;;;;5068617;28;20217;-92
2023/12/16 07:27:23;;;;;;;1.10;1.10;;;9.60;99.90;;;;;;5087734;28;20214;-93
2023/12/16 07:29:52;;;;;;;3.87;0.73;;;9.70;99.90;;;;;;5053996;28;20225;-96
2023/12/16 07:53:58;;;;;;;19.13;2.97;;;9.90;99.90;;;;;;5054256;28;20229;-95
2023/12/16 07:56:29;;;;;;;1.57;1.17;;;9.90;99.90;;;;;;5039234;28;20206;-95
2023/12/16 07:58:58;;;;;;;3.17;1.93;;;9.90;99.90;;;;;;5038394;28;20171;-96
2023/12/16 08:27:10;;;;;;;10.03;2.60;;;9.90;99.90;;;;;;5013562;28;20230;-93
2023/12/16 08:29:36;;;;;;;8.30;1.67;;;9.90;99.90;;;;;;4988134;28;20230;-94
2023/12/16 08:32:02;;;;;;;1.83;1.73;;;10.00;99.90;;;;;;5009790;28;20218;-95
2023/12/16 08:34:31;;;;;;;1.33;1.13;;;10.00;99.90;;;;;;5011090;28;20237;-94
2023/12/16 08:36:57;;;;;;;6.73;1.37;;;10.10;99.90;;;;;;4995297;28;20257;-96
2023/12/16 08:39:22;;;;;;;1.13;0.97;;;10.30;99.90;;;;;;5009815;28;20334;-95
2023/12/16 08:41:48;;;;;;;2.60;1.03;;;10.20;99.90;;;;;;5010502;28;20272;-93
2023/12/16 08:44:14;;;;;;;3.30;1.80;;;10.30;99.90;;;;;;4993713;28;20307;-94
2023/12/16 08:46:41;;;;;;;2.00;1.13;;;10.30;99.90;;;;;;5027110;28;20182;-93
2023/12/16 08:49:06;;;;;;;1.87;1.17;;;10.20;99.90;;;;;;5036235;28;20850;-95
2023/12/16 08:51:32;;;;;;;3.10;0.80;;;10.40;99.90;;;;;;4990984;28;20238;-86
2023/12/16 08:53:58;;;;;;;1.07;1.00;;;10.40;99.90;;;;;;5021225;28;20214;-86
2023/12/16 08:56:24;;;;;;;6.10;1.67;;;10.30;99.90;;;;;;5004468;28;20214;-86
2023/12/16 08:58:49;;;;;;;1.53;1.43;;;10.30;99.90;;;;;;4991396;28;20194;-86
2023/12/16 09:01:15;;;;;;;5.50;2.30;;;10.30;99.90;;;;;;5001327;28;20332;-86
2023/12/16 09:03:42;;;;;;;1.67;0.90;;;10.30;99.90;;;;;;5031834;28;20233;-85
2023/12/16 09:06:08;;;;;;;2.50;1.00;;;10.40;99.90;;;;;;5016192;28;20225;-86
2023/12/16 09:08:34;;;;;;;1.13;0.80;;;10.40;99.90;;;;;;5028959;28;20565;-86
2023/12/16 09:11:00;;;;;;;1.00;0.93;;;10.30;99.90;;;;;;4975649;28;20234;-86
2023/12/16 09:13:26;;;;;;;0.93;0.80;;;10.30;99.90;;;;;;5015139;28;20187;-87
2023/12/16 09:15:52;;;;;;;1.13;1.03;;;10.40;99.90;;;;;;5014120;28;20223;-86
2023/12/16 09:18:18;;;;;;;0.40;0.40;;;10.30;99.90;;;;;;5005481;28;20309;-86
2023/12/16 09:20:43;;;;;;;8.17;1.17;;;10.50;99.90;;;;;;5005976;28;20229;-86
2023/12/16 09:23:09;;;;;;;23.43;1.40;;;10.40;99.90;;;;;;4989945;28;20219;-86
2023/12/16 09:25:35;;;;;;;1.63;1.53;;;10.30;99.90;;;;;;5005371;28;20970;-88
2023/12/16 09:28:01;;;;;;;11.90;2.57;;;10.40;99.90;;;;;;4988758;28;20718;-86
2023/12/16 09:30:26;;;;;;;0.80;0.80;;;10.30;99.90;;;;;;4972790;28;20793;-87
2023/12/16 09:32:52;;;;;;;1.83;1.30;;;10.30;99.90;;;;;;4973555;28;20279;-87
2023/12/16 09:35:18;;;;;;;11.97;1.77;;;10.40;99.90;;;;;;4973464;28;20360;-87
2023/12/16 09:37:44;;;;;;;0.30;0.30;;;10.30;99.90;;;;;;4973659;28;20290;-86
2023/12/16 09:40:11;;;;;;;3.60;1.50;;;10.60;99.90;;;;;;5014641;28;20264;-87
2023/12/16 09:42:37;;;;;;;0.60;0.60;;;10.40;99.90;;;;;;4991665;28;20229;-87
2023/12/16 09:45:03;;;;;;;3.37;3.17;;;10.50;99.90;;;;;;5004999;28;20214;-85
2023/12/16 09:47:30;;;;;;;1.63;1.00;;;10.30;99.90;;;;;;5026349;28;20249;-86
2023/12/16 09:50:00;;;;;;;5.73;1.20;;;10.50;99.90;;;;;;5015016;28;20201;-86
2023/12/16 09:52:27;;;;;;;0.87;0.60;;;10.30;99.90;;;;;;5024809;28;20183;-87
2023/12/16 09:54:52;;;;;;;5.03;0.97;;;10.50;99.90;;;;;;5023125;28;20264;-87
2023/12/16 09:57:21;;;;;;;5.63;2.37;;;10.30;99.90;;;;;;4991294;28;20584;-88
2023/12/16 09:59:47;;;;;;;2.13;2.00;;;10.40;99.90;;;;;;5022071;28;20250;-86
2023/12/16 10:02:25;;;;;;;0.33;0.33;;;10.40;99.90;;;;;;5006347;28;20229;-86
2023/12/16 10:04:52;;;;;;;1.27;1.17;;;10.50;99.90;;;;;;5022389;28;20183;-86
2023/12/16 10:07:18;;;;;;;2.73;2.10;;;10.50;99.90;;;;;;5014279;28;20277;-87
2023/12/16 10:09:44;;;;;;;3.47;1.10;;;10.40;99.90;;;;;;5011797;28;20218;-86
2023/12/16 10:12:10;;;;;;;1.07;0.97;;;10.40;99.90;;;;;;5007673;28;21047;-86
2023/12/16 10:14:47;;;;;;;2.80;1.87;;;10.50;99.90;;;;;;5022931;28;20227;-86
2023/12/16 10:17:16;;;;;;;31.67;2.13;;;10.40;99.90;;;;;;5021400;28;20222;-86
2023/12/16 10:19:43;;;;;;;7.17;1.60;;;10.40;99.90;;;;;;4989794;28;20233;-86
2023/12/16 10:22:09;;;;;;;2.10;1.90;;;10.30;99.90;;;;;;5006659;28;20195;-87
2023/12/16 10:24:36;;;;;;;1.03;1.03;;;10.50;99.90;;;;;;5013081;28;20218;-86
2023/12/16 10:27:04;;;;;;;1.83;1.50;;;10.50;99.90;;;;;;5008412;28;20251;-87
2023/12/16 10:29:32;;;;;;;1.70;1.60;;;10.40;99.90;;;;;;5027241;28;20314;-86
2023/12/16 10:31:58;;;;;;;2.10;1.93;;;10.50;99.90;;;;;;5021126;28;20220;-86
2023/12/16 10:34:28;;;;;;;1.80;1.33;;;10.30;99.90;;;;;;5014615;28;20187;-86
2023/12/16 10:37:05;;;;;;;3.20;1.67;;;10.50;99.90;;;;;;5021770;28;20225;-86
2023/12/16 10:39:32;;;;;;;0.97;0.97;;;10.40;99.90;;;;;;5022794;28;20230;-87
2023/12/16 10:41:58;;;;;;;2.20;1.60;;;10.50;99.90;;;;;;4989513;28;20262;-87
2023/12/16 10:44:23;;;;;;;3.70;0.90;;;10.60;99.90;;;;;;5025836;28;20249;-86
2023/12/16 10:46:56;;;;;;;0.93;0.90;;;10.40;99.90;;;;;;4997572;28;20311;-87
2023/12/16 10:49:28;;;;;;;2.93;1.27;;;10.50;99.90;;;;;;5027468;28;20707;-87
2023/12/16 10:52:04;;;;;;;1.77;1.67;;;10.40;99.90;;;;;;5014926;28;20346;-87
2023/12/16 10:54:39;;;;;;;3.97;1.70;;;10.40;99.90;;;;;;5024465;28;20333;-87
2023/12/16 10:57:29;;;;;;;1.63;0.90;;;10.40;99.90;;;;;;5008350;28;20216;-86
2023/12/16 11:00:06;;;;;;;0.70;0.67;;;10.60;99.90;;;;;;5013324;28;20230;-86
2023/12/16 11:02:37;;;;;;;0.67;0.67;;;10.40;99.90;;;;;;5013999;28;20221;-86
2023/12/16 11:05:14;;;;;;;0.83;0.83;;;10.40;99.90;;;;;;4999110;28;20228;-86
2023/12/16 11:07:41;;;;;;;1.97;1.30;;;10.40;99.90;;;;;;5029855;28;20221;-86
2023/12/16 11:10:08;;;;;;;1.70;1.20;;;10.40;99.90;;;;;;5014910;28;20202;-88
2023/12/16 11:12:35;;;;;;;0.60;0.60;;;10.60;99.90;;;;;;4998855;28;20340;-87
2023/12/16 11:15:06;;;;;;;2.03;1.90;;;10.70;99.90;;;;;;5029613;28;20224;-86
2023/12/16 11:17:55;;;;;;;13.87;1.90;;;10.50;99.90;;;;;;5013350;28;20309;-86
2023/12/16 11:20:28;;;;;;;1.53;1.43;;;10.70;99.90;;;;;;5006334;28;20233;-87
2023/12/16 11:22:55;;;;;;;2.63;2.40;;;10.60;99.90;;;;;;5029943;28;20231;-86
2023/12/16 11:25:21;;;;;;;2.27;1.87;;;10.60;99.90;;;;;;4988688;28;20194;-87
2023/12/16 11:27:48;;;;;;;2.37;1.80;;;10.60;99.90;;;;;;5021599;28;20218;-86
2023/12/16 11:30:15;;;;;;;1.60;1.10;;;10.70;99.90;;;;;;5027119;28;20226;-86
2023/12/16 11:32:44;;;;;;;1.50;1.30;;;10.80;99.90;;;;;;5013866;28;20264;-86
2023/12/16 11:35:10;;;;;;;4.03;1.97;;;11.00;99.90;;;;;;5012232;28;20223;-87
2023/12/16 11:37:42;;;;;;;2.27;1.73;;;11.00;99.90;;;;;;4989752;28;20187;-87
2023/12/16 11:40:44;;;;;;;2.40;2.07;;;10.90;99.90;;;;;;5005255;28;20226;-86
2023/12/16 11:43:10;;;;;;;2.83;1.13;;;11.00;99.90;;;;;;5019249;28;21002;-86
2023/12/16 11:45:37;;;;;;;4.53;1.30;;;11.10;99.90;;;;;;4987247;28;20222;-86
2023/12/16 11:48:08;;;;;;;2.33;1.80;;;11.10;99.90;;;;;;5021338;28;20210;-85
2023/12/16 11:50:37;;;;;;;5.50;0.90;;;11.00;99.90;;;;;;4988094;28;20219;-85
2023/12/16 11:53:03;;;;;;;3.77;1.53;;;11.00;99.90;;;;;;5003299;28;20229;-87
2023/12/16 11:55:29;;;;;;;1.17;1.17;;;11.00;99.90;;;;;;5018818;28;20193;-85
2023/12/16 11:57:55;;;;;;;1.13;0.57;;;11.10;99.90;;;;;;4986080;28;20226;-86
2023/12/16 12:00:22;;;;;;;2.00;1.30;;;11.10;99.90;;;;;;5030016;28;20225;-87
2023/12/16 12:02:51;;;;;;;2.00;1.87;;;11.10;99.90;;;;;;5010065;28;20626;-85
2023/12/16 12:05:17;;;;;;;2.40;1.17;;;11.00;99.90;;;;;;4988293;28;20306;-84
2023/12/16 12:07:43;;;;;;;2.27;2.07;;;11.00;99.90;;;;;;4997457;28;20226;-86
2023/12/16 12:10:10;;;;;;;1.20;1.10;;;11.10;99.90;;;;;;4989047;28;20195;-85
2023/12/16 12:12:35;;;;;;;2.53;0.80;;;11.00;99.90;;;;;;5002808;28;20789;-86
2023/12/16 12:15:01;;;;;;;2.87;1.70;;;11.20;99.90;;;;;;4994465;28;20222;-95
2023/12/16 12:17:28;;;;;;;11.83;2.43;;;11.20;99.90;;;;;;4988237;28;20215;-95
2023/12/16 12:19:57;;;;;;;4.97;0.77;;;11.10;99.90;;;;;;5023342;28;20218;-95
2023/12/16 12:22:24;;;;;;;0.53;0.53;;;11.10;99.90;;;;;;4998348;28;20183;-95
2023/12/16 12:24:53;;;;;;;2.73;1.80;;;11.00;99.90;;;;;;4990742;28;20218;-95
2023/12/16 12:27:18;;;;;;;2.20;1.43;;;11.20;99.90;;;;;;5011533;28;20225;-95
2023/12/16 12:29:57;;;;;;;5.57;2.00;;;11.10;99.90;;;;;;4997032;28;20225;-94
2023/12/16 12:32:25;;;;;;;0.90;0.90;;;11.00;99.90;;;;;;5024382;28;20210;-94
2023/12/16 12:35:04;;;;;;;8.27;1.83;;;11.00;99.90;;;;;;4974344;28;20273;-95
2023/12/16 12:37:46;;;;;;;1.40;1.40;;;11.10;99.90;;;;;;5006886;28;20533;-95
2023/12/16 12:40:12;;;;;;;3.33;1.40;;;11.10;99.90;;;;;;5006776;28;20305;-95
2023/12/16 12:42:44;;;;;;;1.50;1.20;;;11.00;99.90;;;;;;5026196;28;20273;-93
2023/12/16 12:45:21;;;;;;;1.30;1.20;;;11.00;99.90;;;;;;5037314;28;20237;-93
2023/12/16 12:47:48;;;;;;;1.27;1.17;;;11.00;99.90;;;;;;5037696;28;20642;-93
2023/12/16 12:50:25;;;;;;;1.23;1.17;;;11.10;99.90;;;;;;5023494;28;20278;-94
2023/12/16 12:52:51;;;;;;;5.40;1.37;;;11.00;99.90;;;;;;5028964;28;20220;-93
2023/12/16 12:55:20;;;;;;;1.80;1.70;;;11.00;99.90;;;;;;5012967;28;20218;-93
2023/12/16 12:57:46;;;;;;;0.73;0.73;;;11.00;99.90;;;;;;5029192;28;20321;-93
2023/12/16 13:00:14;;;;;;;1.00;1.00;;;11.00;99.90;;;;;;5028983;28;20340;-94
2023/12/16 13:02:40;;;;;;;2.30;1.90;;;11.10;99.90;;;;;;5022183;28;20254;-93
2023/12/16 13:05:06;;;;;;;1.47;1.37;;;11.10;99.90;;;;;;5028824;28;20861;-94
2023/12/16 13:07:32;;;;;;;1.80;1.30;;;11.10;99.90;;;;;;5029460;28;20277;-94
2023/12/16 13:09:58;;;;;;;1.50;1.23;;;11.00;99.90;;;;;;5005351;28;20778;-95
2023/12/16 13:12:24;;;;;;;2.10;1.50;;;11.10;99.90;;;;;;5028251;28;20248;-95
2023/12/16 13:14:50;;;;;;;1.70;1.60;;;11.10;99.90;;;;;;5028829;28;20739;-93
2023/12/16 13:17:16;;;;;;;4.23;1.37;;;11.10;99.90;;;;;;5028490;28;20220;-95
2023/12/16 13:19:42;;;;;;;0.93;0.60;;;11.10;99.90;;;;;;5009026;28;20564;-95
2023/12/16 13:22:09;;;;;;;1.77;1.03;;;11.00;99.90;;;;;;5025089;28;20205;-95
2023/12/16 13:24:35;;;;;;;1.00;0.93;;;11.10;99.90;;;;;;5003688;28;20221;-94
2023/12/16 13:27:00;;;;;;;1.07;1.07;;;11.20;99.90;;;;;;5008362;28;21089;-95
2023/12/16 13:29:27;;;;;;;3.43;2.00;;;11.10;99.90;;;;;;5008387;28;20309;-94
2023/12/16 13:31:54;;;;;;;3.80;1.67;;;11.10;99.90;;;;;;5016610;28;20200;-94
2023/12/16 13:34:19;;;;;;;1.77;1.37;;;11.20;99.90;;;;;;5041936;28;20235;-95
2023/12/16 13:36:45;;;;;;;1.07;0.97;;;11.10;99.90;;;;;;5007837;28;20222;-96
2023/12/16 13:39:11;;;;;;;0.63;0.47;;;11.10;99.90;;;;;;5041031;28;20221;-96